Second Mesa, Arizona
Current Conditions -  °F | °C
As of 10:56 AM on Wednesday 26 Nov 2014 (Local Time) from KINW Reporting Station
Clear Clear  
Wind Chill: 45°   Ceiling: Unl
Heat Index: 47°   Visibility: 10mi
Dew Point:   Wind: 5mph
Humidity: 18%   Direction: NA
Pressure: 30.47"   Gusts: NA
Location:  35.82°N, 110.5°W
Report Text: KINW 261756Z AUTO VRB04KT 10SM CLR 08/M15 A3047 RMK AO2 SLP320 T00831150 10083 21072 50004
Loading
Personal Weather Stations






























Interactive Weather Map New forecast layout! Learn more

10-Day Weather Forecast

Advertisements
Track Severe Weather on mobile